This is the latest recevied weather packets stored in our database for station/object K5DLF-9. If no packets are shown the sender has not sent any weather packets the latest 10 day(s).
| Time | Temp. | Humidity | Pressure | Rain* | Wind** | Luminosity | Snow |
|---|---|---|---|---|---|---|---|
| 1787953824 | 24.44° C | 88% | 1012.2 hPa | 0 mm | - | 69 W/m² | - |
| 1787937623 | 35° C | 67% | 1014.4 hPa | 0 mm | - | 842 W/m² | - |
| 1787908824 | 27.22° C | 90% | 1012.8 hPa | 0 mm | - | 0 W/m² | - |
| 1787899223 | 27.22° C | 89% | 1012.8 hPa | 0 mm | - | 0 W/m² | - |
| 1787810433 | 27.22° C | 88% | 1011.8 hPa | 0 mm | - | 0 W/m² | - |
| 1787802625 | 27.78° C | 85% | 1011.5 hPa | 0 mm | - | 0 W/m² | - |
| 1787721030 | 27.22° C | 87% | 1013 hPa | 0 mm | - | 0 W/m² | - |
| 1787716234 | 27.78° C | 86% | 1013.2 hPa | 0 mm | - | 0 W/m² | - |
| 1787707231 | 30° C | 78% | 1012.1 hPa | 0 mm | - | 0 W/m² | - |
| 1787701230 | 32.78° C | 73% | 1012 hPa | 0 mm | - | 42 W/m² | - |
| 1787680232 | 35.56° C | 65% | 1014.4 hPa | 0 mm | - | 842 W/m² | - |
| 1787674833 | 31.67° C | 78% | 1015.3 hPa | 0 mm | - | 761 W/m² | - |
| 1787665833 | 27.22° C | 95% | 1014.6 hPa | 0 mm | - | 44 W/m² | - |
| 1787619033 | 30.56° C | 77% | 1012.3 hPa | 0 mm | - | 0 W/m² | - |
| 1787604034 | 40.56° C | 49% | 1011.4 hPa | 0 mm | - | 691 W/m² | - |
| 1787602233 | 40.56° C | 52% | 1011.9 hPa | 0 mm | - | 749 W/m² | - |
| 1787584834 | 30° C | 85% | 1013.8 hPa | 0 mm | - | 258 W/m² | - |
| 1787546434 | 26.67° C | 88% | 1012.6 hPa | 0 mm | - | 0 W/m² | - |
| 1787545233 | 26.67° C | 86% | 1012.8 hPa | 0 mm | - | 0 W/m² | - |
| 1787533236 | 31.11° C | 70% | 1011.6 hPa | 0 mm | - | 0 W/m² | - |
| 1787532035 | 31.67° C | 67% | 1011.6 hPa | 0 mm | - | 9 W/m² | - |
| 1787530834 | 32.78° C | 66% | 1011.5 hPa | 0 mm | - | 21 W/m² | - |
| 1787506835 | 35° C | 67% | 1014 hPa | 0 mm | - | 824 W/m² | - |
| 1787492466 | 26.11° C | 94% | 1014.1 hPa | 0 mm | - | 56 W/m² | - |
| 1787491244 | 25.56° C | 94% | 1014 hPa | 0 mm | - | 46 W/m² | - |
* Rain latest hour (hover to see other rain measurements)
** Current wind speed in m/s (hover to see current wind gust speed)